Time;durP1;ratioP1;P1;durP2;ratioP2;P2;SDS_P1;SDS_P2;PMS_P1;PMS_P2;Temp;Humidity;BMP_temperature;BMP_pressure;BME280_temperature;BME280_humidity;BME280_pressure;Samples;Min_cycle;Max_cycle;Signal;HPM_P1;HPM_P2
2024/01/22 00:01:11;;;;;;;0.70;0.70;;;;;;;;;;5013037;28;20165;-70
2024/01/22 00:03:37;;;;;;;0.70;0.70;;;;;;;;;;5013032;28;20179;-70
2024/01/22 00:06:02;;;;;;;0.60;0.60;;;;;;;;;;5012976;28;20626;-70
2024/01/22 00:08:27;;;;;;;17.57;5.03;;;;;;;;;;5012994;28;20538;-70
2024/01/22 00:10:52;;;;;;;0.80;0.80;;;;;;;;;;5013017;28;20190;-70
2024/01/22 00:13:18;;;;;;;3.03;2.93;;;;;;;;;;5012936;28;20195;-70
2024/01/22 00:15:43;;;;;;;0.60;0.60;;;;;;;;;;5012452;28;20171;-70
2024/01/22 00:18:09;;;;;;;2.20;2.10;;;;;;;;;;5012095;28;20175;-70
2024/01/22 00:20:34;;;;;;;0.80;0.80;;;;;;;;;;5012665;28;20234;-69
2024/01/22 00:23:00;;;;;;;1.23;1.23;;;;;;;;;;5012869;28;20669;-69
2024/01/22 00:25:25;;;;;;;0.70;0.70;;;;;;;;;;5012592;28;20374;-69
2024/01/22 00:27:51;;;;;;;0.70;0.70;;;;;;;;;;5012625;28;20168;-69
2024/01/22 00:30:16;;;;;;;0.60;0.60;;;;;;;;;;5012585;28;20165;-69
2024/01/22 00:32:41;;;;;;;0.57;0.57;;;;;;;;;;5012612;28;20196;-69
2024/01/22 00:35:07;;;;;;;0.60;0.60;;;;;;;;;;5012516;28;20206;-69
2024/01/22 00:37:32;;;;;;;0.90;0.90;;;;;;;;;;5012454;28;20168;-69
2024/01/22 00:39:58;;;;;;;3.33;1.17;;;;;;;;;;5012568;28;20176;-70
2024/01/22 00:42:23;;;;;;;0.63;0.63;;;;;;;;;;5011241;28;20164;-70
2024/01/22 00:44:48;;;;;;;0.70;0.70;;;;;;;;;;5012218;28;20278;-69
2024/01/22 00:47:13;;;;;;;0.60;0.60;;;;;;;;;;5012161;28;20252;-69
2024/01/22 00:49:39;;;;;;;0.80;0.80;;;;;;;;;;5012235;28;20175;-69
2024/01/22 00:52:04;;;;;;;15.50;5.73;;;;;;;;;;5012094;28;20242;-69
2024/01/22 00:54:30;;;;;;;0.60;0.60;;;;;;;;;;5012432;28;20164;-69
2024/01/22 00:56:56;;;;;;;1.03;0.97;;;;;;;;;;5012274;28;20251;-69
2024/01/22 00:59:22;;;;;;;0.60;0.60;;;;;;;;;;5012060;28;20207;-69
2024/01/22 01:01:47;;;;;;;1.63;1.53;;;;;;;;;;5012048;28;20650;-70
2024/01/22 01:04:13;;;;;;;1.63;1.53;;;;;;;;;;5011951;28;20200;-69
2024/01/22 01:06:38;;;;;;;0.70;0.70;;;;;;;;;;5011892;28;20165;-69
2024/01/22 01:09:03;;;;;;;0.60;0.60;;;;;;;;;;5012030;28;20172;-70
2024/01/22 01:11:29;;;;;;;0.67;0.67;;;;;;;;;;5010815;28;20611;-69
2024/01/22 01:13:54;;;;;;;0.80;0.80;;;;;;;;;;5011975;28;20164;-69
2024/01/22 01:16:19;;;;;;;0.70;0.70;;;;;;;;;;5010539;28;20192;-69
2024/01/22 01:18:45;;;;;;;0.60;0.60;;;;;;;;;;5011753;28;20183;-69
2024/01/22 01:21:10;;;;;;;0.60;0.60;;;;;;;;;;5011597;28;20219;-69
2024/01/22 01:23:35;;;;;;;0.80;0.80;;;;;;;;;;5011581;28;20172;-69
2024/01/22 01:26:01;;;;;;;3.63;1.40;;;;;;;;;;5011721;28;20173;-69
2024/01/22 01:28:26;;;;;;;0.60;0.60;;;;;;;;;;5011371;28;20168;-69
2024/01/22 01:30:51;;;;;;;0.97;0.97;;;;;;;;;;5011473;28;20160;-69
2024/01/22 01:33:17;;;;;;;0.60;0.60;;;;;;;;;;5011474;28;20183;-70
2024/01/22 01:35:44;;;;;;;1.27;1.27;;;;;;;;;;5011270;28;20242;-70
2024/01/22 01:38:10;;;;;;;2.03;2.00;;;;;;;;;;5011289;28;20176;-70
2024/01/22 01:40:37;;;;;;;0.60;0.60;;;;;;;;;;5011325;28;20175;-69
2024/01/22 01:43:02;;;;;;;0.60;0.60;;;;;;;;;;5011222;28;20180;-69
2024/01/22 01:45:27;;;;;;;0.60;0.60;;;;;;;;;;5011178;28;20228;-68
2024/01/22 01:47:53;;;;;;;0.60;0.60;;;;;;;;;;5011267;28;20172;-68
2024/01/22 01:50:18;;;;;;;0.70;0.70;;;;;;;;;;5011097;28;20533;-68
2024/01/22 01:52:43;;;;;;;1.70;1.63;;;;;;;;;;5011169;28;20549;-68
2024/01/22 01:55:09;;;;;;;0.90;0.90;;;;;;;;;;5011093;28;20215;-68
2024/01/22 01:57:36;;;;;;;0.90;0.90;;;;;;;;;;5011075;28;20239;-67
2024/01/22 02:00:04;;;;;;;0.70;0.70;;;;;;;;;;5011070;28;20168;-67
2024/01/22 02:02:29;;;;;;;0.60;0.60;;;;;;;;;;5011040;28;20210;-68
2024/01/22 02:04:55;;;;;;;0.70;0.70;;;;;;;;;;5010899;28;20219;-67
2024/01/22 02:07:20;;;;;;;3.03;1.17;;;;;;;;;;5011001;28;20165;-67
2024/01/22 02:09:48;;;;;;;9.87;9.03;;;;;;;;;;5011110;28;20263;-66
2024/01/22 02:12:17;;;;;;;50.47;4.50;;;;;;;;;;5010809;28;20168;-67
2024/01/22 02:14:43;;;;;;;0.70;0.70;;;;;;;;;;5010789;28;20749;-67
2024/01/22 02:17:08;;;;;;;0.83;0.83;;;;;;;;;;5010893;28;20153;-67
2024/01/22 02:19:33;;;;;;;0.70;0.70;;;;;;;;;;5010746;28;20220;-67
2024/01/22 02:21:58;;;;;;;0.90;0.90;;;;;;;;;;5009595;28;20314;-67
2024/01/22 02:24:24;;;;;;;1.20;1.20;;;;;;;;;;5010575;28;20650;-67
2024/01/22 02:26:50;;;;;;;0.70;0.70;;;;;;;;;;5010699;28;20673;-67
2024/01/22 02:29:16;;;;;;;2.30;2.20;;;;;;;;;;5010731;28;20669;-67
2024/01/22 02:31:41;;;;;;;1.23;1.23;;;;;;;;;;5010583;28;20172;-67
2024/01/22 02:34:06;;;;;;;0.70;0.70;;;;;;;;;;5010622;28;20164;-65
2024/01/22 02:36:31;;;;;;;0.77;0.77;;;;;;;;;;5010600;28;20247;-67
2024/01/22 02:38:57;;;;;;;0.70;0.70;;;;;;;;;;5010686;28;20630;-68
2024/01/22 02:41:22;;;;;;;1.87;1.77;;;;;;;;;;5013949;28;20168;-67
2024/01/22 02:43:47;;;;;;;1.87;1.80;;;;;;;;;;5014510;28;20172;-67
2024/01/22 02:46:13;;;;;;;0.60;0.60;;;;;;;;;;5014676;28;20777;-67
2024/01/22 02:48:38;;;;;;;0.70;0.70;;;;;;;;;;5014670;28;20175;-67
2024/01/22 02:51:07;;;;;;;1.67;1.60;;;;;;;;;;5014677;28;20168;-67
2024/01/22 02:53:32;;;;;;;0.60;0.60;;;;;;;;;;5014630;28;20164;-67
2024/01/22 02:55:58;;;;;;;0.97;0.97;;;;;;;;;;5014405;28;20172;-67
2024/01/22 02:58:23;;;;;;;0.60;0.60;;;;;;;;;;5014465;28;21006;-67
2024/01/22 03:00:48;;;;;;;0.70;0.70;;;;;;;;;;5014276;28;20163;-67
2024/01/22 03:03:13;;;;;;;0.60;0.60;;;;;;;;;;5014168;28;20200;-67
2024/01/22 03:05:40;;;;;;;0.63;0.63;;;;;;;;;;5014032;28;20204;-67
2024/01/22 03:08:06;;;;;;;3.83;3.03;;;;;;;;;;5014114;28;20586;-67
2024/01/22 03:10:31;;;;;;;0.87;0.87;;;;;;;;;;5014127;28;20266;-66
2024/01/22 03:12:56;;;;;;;3.00;1.63;;;;;;;;;;5014033;28;20157;-67
2024/01/22 03:15:22;;;;;;;1.83;1.70;;;;;;;;;;5013950;28;20172;-67
2024/01/22 03:17:47;;;;;;;0.70;0.70;;;;;;;;;;5013996;28;20180;-68
2024/01/22 03:20:13;;;;;;;0.83;0.83;;;;;;;;;;5013876;28;20220;-67
2024/01/22 03:22:39;;;;;;;7.47;7.07;;;;;;;;;;5013827;28;20180;-67
2024/01/22 03:25:04;;;;;;;0.60;0.60;;;;;;;;;;5013561;28;20686;-67
2024/01/22 03:27:29;;;;;;;0.60;0.60;;;;;;;;;;5013958;28;20255;-67
2024/01/22 03:29:55;;;;;;;1.27;1.27;;;;;;;;;;5013836;28;20169;-67
2024/01/22 03:32:20;;;;;;;0.80;0.80;;;;;;;;;;5013852;28;20168;-67
2024/01/22 03:34:45;;;;;;;1.40;1.40;;;;;;;;;;5012541;28;20907;-67
2024/01/22 03:37:11;;;;;;;3.30;3.00;;;;;;;;;;5012671;28;20426;-67
2024/01/22 03:39:36;;;;;;;0.80;0.80;;;;;;;;;;5011404;28;20426;-67
2024/01/22 03:42:02;;;;;;;1.63;1.57;;;;;;;;;;5012304;28;20413;-67
2024/01/22 03:44:27;;;;;;;0.50;0.50;;;;;;;;;;5012110;28;20434;-68
2024/01/22 03:46:52;;;;;;;31.83;12.60;;;;;;;;;;5013340;28;20202;-68
2024/01/22 03:49:17;;;;;;;15.53;9.30;;;;;;;;;;5013376;28;20172;-68
2024/01/22 03:51:43;;;;;;;0.60;0.60;;;;;;;;;;5013103;28;20192;-68
2024/01/22 03:54:08;;;;;;;1.83;1.73;;;;;;;;;;5013298;28;20168;-68
2024/01/22 03:56:33;;;;;;;2.00;1.90;;;;;;;;;;5013356;28;20255;-68
2024/01/22 03:58:59;;;;;;;3.83;3.63;;;;;;;;;;5013231;28;20173;-68
2024/01/22 04:01:24;;;;;;;0.60;0.60;;;;;;;;;;5013373;28;20642;-68
2024/01/22 04:03:50;;;;;;;1.43;1.43;;;;;;;;;;5013166;28;21005;-68
2024/01/22 04:06:16;;;;;;;0.67;0.67;;;;;;;;;;5013295;28;20219;-68
2024/01/22 04:08:41;;;;;;;1.10;1.10;;;;;;;;;;5013350;28;20165;-68
2024/01/22 04:11:06;;;;;;;0.73;0.73;;;;;;;;;;5013832;28;20164;-68
2024/01/22 04:13:32;;;;;;;0.70;0.70;;;;;;;;;;5014034;28;20246;-69
2024/01/22 04:15:57;;;;;;;1.17;1.10;;;;;;;;;;5014736;28;20625;-69
2024/01/22 04:18:22;;;;;;;14.73;3.37;;;;;;;;;;5015095;28;20164;-68
2024/01/22 04:20:48;;;;;;;1.10;1.10;;;;;;;;;;5015954;28;20243;-69
2024/01/22 04:23:13;;;;;;;0.90;0.90;;;;;;;;;;5015007;28;20165;-68
2024/01/22 04:25:38;;;;;;;1.27;1.27;;;;;;;;;;5012814;28;20204;-68
2024/01/22 04:28:04;;;;;;;10.07;5.13;;;;;;;;;;5012846;28;20168;-68
2024/01/22 04:30:29;;;;;;;0.97;0.97;;;;;;;;;;5012754;28;20172;-68
2024/01/22 04:32:54;;;;;;;8.17;3.67;;;;;;;;;;5013067;28;20600;-68
2024/01/22 04:35:20;;;;;;;1.33;1.33;;;;;;;;;;5012821;28;20177;-67
2024/01/22 04:37:45;;;;;;;1.17;1.17;;;;;;;;;;5012411;28;20172;-68
2024/01/22 04:40:12;;;;;;;6.80;4.23;;;;;;;;;;5012354;28;20230;-68
2024/01/22 04:42:37;;;;;;;0.90;0.90;;;;;;;;;;5012365;28;20227;-67
2024/01/22 04:45:02;;;;;;;1.10;1.10;;;;;;;;;;5012189;28;20204;-68
2024/01/22 04:47:28;;;;;;;17.00;16.13;;;;;;;;;;5012040;28;20664;-67
2024/01/22 04:49:53;;;;;;;1.40;1.30;;;;;;;;;;5010678;28;20168;-68
2024/01/22 04:52:18;;;;;;;0.90;0.90;;;;;;;;;;5012199;28;20190;-67
2024/01/22 04:54:44;;;;;;;0.70;0.70;;;;;;;;;;5012237;28;20618;-68
2024/01/22 04:57:09;;;;;;;0.77;0.77;;;;;;;;;;5012160;28;20195;-67
2024/01/22 04:59:34;;;;;;;3.23;1.30;;;;;;;;;;5012268;28;20168;-68
2024/01/22 05:02:00;;;;;;;1.30;1.20;;;;;;;;;;5011747;28;20168;-67
2024/01/22 05:04:25;;;;;;;0.80;0.80;;;;;;;;;;5011769;28;20732;-69
2024/01/22 05:06:50;;;;;;;5.77;5.37;;;;;;;;;;5012257;28;20275;-73
2024/01/22 05:09:15;;;;;;;1.20;1.20;;;;;;;;;;5011834;28;20203;-68
2024/01/22 05:11:41;;;;;;;6.43;2.30;;;;;;;;;;5011814;28;20226;-67
2024/01/22 05:14:06;;;;;;;1.93;1.87;;;;;;;;;;5011770;28;20196;-67
2024/01/22 05:16:33;;;;;;;11.37;6.60;;;;;;;;;;5011646;28;20214;-67
2024/01/22 05:18:58;;;;;;;1.73;1.63;;;;;;;;;;5011801;28;20184;-67
2024/01/22 05:21:24;;;;;;;1.10;1.10;;;;;;;;;;5011589;28;20224;-67
2024/01/22 05:23:49;;;;;;;0.97;0.97;;;;;;;;;;5010346;28;20179;-66
2024/01/22 05:26:14;;;;;;;3.30;2.77;;;;;;;;;;5004766;28;20196;-66
2024/01/22 05:28:40;;;;;;;0.60;0.60;;;;;;;;;;4990947;28;20219;-66
2024/01/22 05:31:05;;;;;;;0.60;0.60;;;;;;;;;;4991924;28;20207;-66
2024/01/22 05:33:30;;;;;;;1.20;1.20;;;;;;;;;;4991910;28;20176;-66
2024/01/22 05:35:56;;;;;;;0.93;0.93;;;;;;;;;;4991770;28;20166;-66
2024/01/22 05:38:21;;;;;;;0.70;0.70;;;;;;;;;;4992108;28;20200;-66
2024/01/22 05:40:47;;;;;;;1.20;1.20;;;;;;;;;;4992008;28;20292;-67
2024/01/22 05:43:12;;;;;;;1.03;1.03;;;;;;;;;;4991779;28;20165;-67
2024/01/22 05:45:37;;;;;;;1.53;1.53;;;;;;;;;;4991608;28;20220;-66
2024/01/22 05:48:03;;;;;;;1.37;1.27;;;;;;;;;;4991705;28;20343;-66
2024/01/22 05:50:29;;;;;;;4.93;3.37;;;;;;;;;;4991515;28;20172;-65
2024/01/22 05:52:54;;;;;;;7.30;5.27;;;;;;;;;;4991536;28;20169;-66
2024/01/22 05:55:19;;;;;;;0.80;0.80;;;;;;;;;;4991158;28;20169;-66
2024/01/22 05:57:44;;;;;;;1.00;1.00;;;;;;;;;;4991124;28;20705;-65
2024/01/22 06:00:12;;;;;;;6.07;3.07;;;;;;;;;;4991465;28;20201;-65
2024/01/22 06:02:41;;;;;;;1.10;1.10;;;;;;;;;;4990634;28;20173;-66
2024/01/22 06:05:07;;;;;;;0.70;0.70;;;;;;;;;;4990308;28;20212;-65
2024/01/22 06:07:32;;;;;;;0.97;0.97;;;;;;;;;;4990512;28;20173;-65
2024/01/22 06:09:58;;;;;;;0.60;0.60;;;;;;;;;;4990997;28;20166;-66
2024/01/22 06:12:23;;;;;;;0.90;0.90;;;;;;;;;;4990921;28;20176;-66
2024/01/22 06:14:49;;;;;;;1.20;1.20;;;;;;;;;;4989983;28;20619;-67
2024/01/22 06:17:14;;;;;;;0.70;0.70;;;;;;;;;;4991132;28;20164;-66
2024/01/22 06:19:39;;;;;;;1.37;1.17;;;;;;;;;;4991097;28;20725;-66
2024/01/22 06:22:05;;;;;;;10.23;4.33;;;;;;;;;;4991249;28;20232;-66
2024/01/22 06:24:30;;;;;;;3.37;3.07;;;;;;;;;;4991137;28;20232;-66
2024/01/22 06:26:55;;;;;;;1.07;1.07;;;;;;;;;;4991176;28;20602;-66
2024/01/22 06:29:20;;;;;;;1.73;1.57;;;;;;;;;;4991129;28;20700;-66
2024/01/22 06:31:46;;;;;;;7.60;3.97;;;;;;;;;;4991221;28;20200;-65
2024/01/22 06:34:14;;;;;;;7.43;3.07;;;;;;;;;;4991081;28;20196;-66
2024/01/22 06:36:39;;;;;;;0.80;0.80;;;;;;;;;;4991131;28;20204;-66
2024/01/22 06:39:08;;;;;;;1.13;1.13;;;;;;;;;;4991020;28;20602;-66
2024/01/22 06:41:33;;;;;;;1.23;1.23;;;;;;;;;;4991055;28;20185;-64
2024/01/22 06:43:58;;;;;;;0.87;0.87;;;;;;;;;;4990966;28;20169;-65
2024/01/22 06:46:23;;;;;;;2.37;1.53;;;;;;;;;;4990950;28;20176;-66
2024/01/22 06:48:49;;;;;;;0.70;0.70;;;;;;;;;;4990990;28;20655;-66
2024/01/22 06:51:15;;;;;;;3.07;1.83;;;;;;;;;;4991004;28;20161;-65
2024/01/22 06:53:40;;;;;;;5.70;4.57;;;;;;;;;;4990923;28;20252;-65
2024/01/22 06:56:07;;;;;;;1.20;1.20;;;;;;;;;;4990924;28;20277;-65
2024/01/22 06:58:32;;;;;;;0.80;0.80;;;;;;;;;;4990918;28;20678;-65
2024/01/22 07:00:57;;;;;;;0.80;0.80;;;;;;;;;;4991080;28;20177;-67
2024/01/22 07:03:22;;;;;;;3.73;3.43;;;;;;;;;;4991058;28;20177;-65
2024/01/22 07:05:48;;;;;;;1.13;1.13;;;;;;;;;;4990923;28;20682;-65
2024/01/22 07:08:13;;;;;;;1.67;1.57;;;;;;;;;;4993608;28;20638;-66
2024/01/22 07:10:40;;;;;;;0.80;0.80;;;;;;;;;;4999476;28;20183;-66
2024/01/22 07:13:05;;;;;;;0.80;0.80;;;;;;;;;;5011900;28;20196;-69
2024/01/22 07:15:31;;;;;;;3.50;2.00;;;;;;;;;;5010701;28;20601;-66
2024/01/22 07:17:57;;;;;;;2.53;2.43;;;;;;;;;;5010390;28;20173;-65
2024/01/22 07:20:22;;;;;;;5.43;3.07;;;;;;;;;;5010265;28;20255;-65
2024/01/22 07:22:47;;;;;;;1.30;1.30;;;;;;;;;;5010528;28;20256;-66
2024/01/22 07:25:13;;;;;;;2.80;2.60;;;;;;;;;;5010363;28;20204;-66
2024/01/22 07:27:39;;;;;;;1.80;1.70;;;;;;;;;;5013582;28;20199;-66
2024/01/22 07:30:08;;;;;;;1.50;1.43;;;;;;;;;;5013681;28;20557;-66
2024/01/22 07:32:36;;;;;;;1.90;1.10;;;;;;;;;;5013785;28;20661;-66
2024/01/22 07:35:03;;;;;;;0.77;0.77;;;;;;;;;;5013767;28;20170;-67
2024/01/22 07:37:28;;;;;;;0.90;0.90;;;;;;;;;;5013830;28;20626;-66
2024/01/22 07:39:53;;;;;;;5.57;1.93;;;;;;;;;;5013559;28;20197;-65
2024/01/22 07:42:19;;;;;;;15.57;11.50;;;;;;;;;;5013527;28;20169;-66
2024/01/22 07:44:44;;;;;;;2.20;2.10;;;;;;;;;;5013515;28;20200;-66
2024/01/22 07:47:10;;;;;;;1.90;1.80;;;;;;;;;;5013677;28;20681;-66
2024/01/22 07:49:35;;;;;;;1.60;1.57;;;;;;;;;;5013578;28;20276;-65
2024/01/22 07:52:01;;;;;;;1.57;1.47;;;;;;;;;;5013410;28;20161;-65
2024/01/22 07:54:26;;;;;;;6.53;6.00;;;;;;;;;;5012107;28;20184;-65
2024/01/22 07:56:51;;;;;;;1.07;1.07;;;;;;;;;;5013394;28;20173;-65
2024/01/22 07:59:17;;;;;;;0.70;0.70;;;;;;;;;;5013269;28;20177;-66
2024/01/22 08:01:42;;;;;;;1.60;1.50;;;;;;;;;;5013269;28;20226;-66
2024/01/22 08:04:07;;;;;;;0.70;0.70;;;;;;;;;;5013203;28;20204;-66
2024/01/22 08:06:32;;;;;;;7.70;3.53;;;;;;;;;;5013090;28;20164;-66
2024/01/22 08:08:59;;;;;;;1.37;1.37;;;;;;;;;;5013114;28;20572;-65
2024/01/22 08:11:24;;;;;;;1.27;1.27;;;;;;;;;;5012984;28;20307;-66
2024/01/22 08:13:49;;;;;;;3.30;2.50;;;;;;;;;;5013011;28;20248;-65
2024/01/22 08:16:14;;;;;;;1.10;1.10;;;;;;;;;;5013003;28;20626;-65
2024/01/22 08:18:40;;;;;;;1.50;1.50;;;;;;;;;;5012882;28;20165;-65
2024/01/22 08:21:05;;;;;;;1.30;1.20;;;;;;;;;;5012944;28;20281;-66
2024/01/22 08:23:30;;;;;;;1.60;1.50;;;;;;;;;;5012801;28;20168;-65
2024/01/22 08:25:56;;;;;;;0.70;0.70;;;;;;;;;;5012628;28;20215;-65
2024/01/22 08:28:21;;;;;;;1.07;0.97;;;;;;;;;;5012774;28;20256;-66
2024/01/22 08:30:46;;;;;;;1.80;1.80;;;;;;;;;;5012677;28;20167;-65
2024/01/22 08:33:11;;;;;;;0.70;0.70;;;;;;;;;;5012610;28;20171;-66
2024/01/22 08:35:37;;;;;;;0.70;0.70;;;;;;;;;;5012636;28;20636;-65
2024/01/22 08:38:02;;;;;;;0.60;0.60;;;;;;;;;;5011560;28;20175;-65
2024/01/22 08:40:27;;;;;;;0.70;0.70;;;;;;;;;;5011253;28;20587;-65
2024/01/22 08:42:54;;;;;;;1.10;1.10;;;;;;;;;;5012508;28;20661;-65
2024/01/22 08:45:19;;;;;;;0.60;0.60;;;;;;;;;;5010986;28;20655;-65
2024/01/22 08:47:46;;;;;;;1.80;1.70;;;;;;;;;;5012338;28;20255;-66
2024/01/22 08:50:15;;;;;;;1.47;1.47;;;;;;;;;;5012391;28;20634;-66
2024/01/22 08:52:40;;;;;;;0.60;0.60;;;;;;;;;;5010929;28;20554;-66
2024/01/22 08:55:06;;;;;;;0.57;0.57;;;;;;;;;;5012233;28;20176;-65
2024/01/22 08:57:31;;;;;;;0.60;0.60;;;;;;;;;;5012191;28;20173;-65
2024/01/22 08:59:57;;;;;;;0.60;0.60;;;;;;;;;;5012364;28;20172;-66
2024/01/22 09:02:22;;;;;;;0.70;0.70;;;;;;;;;;5010778;28;20215;-66
2024/01/22 09:04:47;;;;;;;0.60;0.60;;;;;;;;;;5012007;28;20188;-66
2024/01/22 09:07:13;;;;;;;2.17;2.10;;;;;;;;;;5011994;28;20188;-65
2024/01/22 09:09:39;;;;;;;0.83;0.83;;;;;;;;;;5011833;28;20173;-65
2024/01/22 09:12:04;;;;;;;1.73;1.63;;;;;;;;;;5008207;28;20173;-64
2024/01/22 09:14:29;;;;;;;0.60;0.60;;;;;;;;;;5009439;28;20582;-65
2024/01/22 09:16:55;;;;;;;0.70;0.70;;;;;;;;;;5011076;28;20168;-65
2024/01/22 09:19:20;;;;;;;0.60;0.60;;;;;;;;;;5010813;28;20720;-65
2024/01/22 09:21:45;;;;;;;0.60;0.60;;;;;;;;;;5010895;28;20618;-65
2024/01/22 09:24:10;;;;;;;0.60;0.60;;;;;;;;;;5010813;28;20255;-66
2024/01/22 09:26:35;;;;;;;0.87;0.87;;;;;;;;;;4987244;28;20235;-66
2024/01/22 09:29:01;;;;;;;0.60;0.60;;;;;;;;;;4991242;28;20176;-66
2024/01/22 09:31:26;;;;;;;0.60;0.60;;;;;;;;;;4991441;28;20973;-65
2024/01/22 09:33:53;;;;;;;0.60;0.60;;;;;;;;;;4991014;28;20620;-66
2024/01/22 09:36:19;;;;;;;0.60;0.60;;;;;;;;;;4975234;28;20180;-66
2024/01/22 09:38:44;;;;;;;1.00;1.00;;;;;;;;;;4971692;28;20543;-65
2024/01/22 09:41:09;;;;;;;0.60;0.60;;;;;;;;;;4971461;28;20170;-65
2024/01/22 09:43:36;;;;;;;1.23;1.13;;;;;;;;;;4971499;28;20170;-65
2024/01/22 09:46:01;;;;;;;1.70;1.33;;;;;;;;;;4971533;28;20205;-65
2024/01/22 09:48:29;;;;;;;0.60;0.60;;;;;;;;;;4971916;28;20624;-64
2024/01/22 09:50:54;;;;;;;11.03;3.77;;;;;;;;;;4970635;28;20663;-65
2024/01/22 09:53:21;;;;;;;20.93;6.20;;;;;;;;;;4972111;28;20204;-63
2024/01/22 09:55:50;;;;;;;2.73;2.63;;;;;;;;;;4972092;28;20181;-66
2024/01/22 09:58:20;;;;;;;0.60;0.60;;;;;;;;;;4972197;28;20172;-65
2024/01/22 10:00:46;;;;;;;1.33;1.33;;;;;;;;;;4972016;28;20233;-66
2024/01/22 10:03:12;;;;;;;5.23;4.77;;;;;;;;;;4971963;28;20165;-66
2024/01/22 10:05:38;;;;;;;1.13;1.13;;;;;;;;;;4971915;28;20285;-68
2024/01/22 10:08:03;;;;;;;1.40;1.40;;;;;;;;;;4971973;28;20616;-66
2024/01/22 10:10:28;;;;;;;1.77;1.77;;;;;;;;;;4972001;28;20177;-68
2024/01/22 10:12:57;;;;;;;0.97;0.97;;;;;;;;;;4971537;28;20256;-66
2024/01/22 10:15:23;;;;;;;1.87;1.77;;;;;;;;;;4971791;28;20200;-68
2024/01/22 10:17:48;;;;;;;0.90;0.90;;;;;;;;;;4971822;28;20632;-66
2024/01/22 10:20:14;;;;;;;2.23;2.13;;;;;;;;;;4977315;28;20231;-65
2024/01/22 10:22:39;;;;;;;0.70;0.70;;;;;;;;;;5010703;28;20214;-66
2024/01/22 10:25:05;;;;;;;1.70;1.70;;;;;;;;;;5010627;28;20200;-68
2024/01/22 10:27:30;;;;;;;9.30;8.73;;;;;;;;;;5010741;28;20188;-66
2024/01/22 10:30:09;;;;;;;4.17;3.97;;;;;;;;;;5010779;28;20207;-66
2024/01/22 10:32:35;;;;;;;5.20;2.50;;;;;;;;;;5010544;28;20280;-67
2024/01/22 10:35:06;;;;;;;3.40;3.10;;;;;;;;;;5010841;28;20278;-68
2024/01/22 10:37:31;;;;;;;2.13;2.03;;;;;;;;;;5010621;28;20169;-67
2024/01/22 10:40:01;;;;;;;1.37;1.37;;;;;;;;;;5010693;28;20164;-68
2024/01/22 10:42:27;;;;;;;17.17;15.80;;;;;;;;;;5010417;28;20169;-68
2024/01/22 10:44:52;;;;;;;11.70;11.03;;;;;;;;;;5010654;28;20215;-65
2024/01/22 10:47:18;;;;;;;0.80;0.80;;;;;;;;;;5010538;28;20244;-68
2024/01/22 10:49:44;;;;;;;0.70;0.70;;;;;;;;;;5010395;28;20171;-66
2024/01/22 10:52:09;;;;;;;0.60;0.60;;;;;;;;;;5009434;28;20179;-68
2024/01/22 10:54:35;;;;;;;0.90;0.90;;;;;;;;;;5010287;28;20169;-66
2024/01/22 10:57:08;;;;;;;2.40;2.30;;;;;;;;;;5010336;28;20267;-66
2024/01/22 10:59:38;;;;;;;0.50;0.50;;;;;;;;;;5010380;28;20175;-66
2024/01/22 11:02:05;;;;;;;1.73;1.67;;;;;;;;;;5013164;28;20645;-66
2024/01/22 11:04:37;;;;;;;0.70;0.70;;;;;;;;;;5014225;28;20192;-66
2024/01/22 11:07:05;;;;;;;0.63;0.63;;;;;;;;;;5014177;28;20176;-67
2024/01/22 11:09:32;;;;;;;0.50;0.50;;;;;;;;;;5014247;28;20290;-68
2024/01/22 11:11:59;;;;;;;2.57;0.53;;;;;;;;;;5014236;28;20168;-67
2024/01/22 11:14:24;;;;;;;1.37;1.37;;;;;;;;;;5013952;28;20200;-68
2024/01/22 11:16:50;;;;;;;0.50;0.50;;;;;;;;;;5013929;28;20728;-68
2024/01/22 11:19:22;;;;;;;3.40;1.57;;;;;;;;;;5013827;28;20184;-67
2024/01/22 11:21:49;;;;;;;0.97;0.97;;;;;;;;;;5013881;28;20575;-68
2024/01/22 11:24:25;;;;;;;0.60;0.60;;;;;;;;;;5015672;28;20697;-69
2024/01/22 11:26:50;;;;;;;0.70;0.70;;;;;;;;;;5016129;28;20168;-68
2024/01/22 11:29:19;;;;;;;2.90;2.80;;;;;;;;;;5016054;28;20176;-68
2024/01/22 11:31:45;;;;;;;1.87;1.87;;;;;;;;;;5014988;28;20164;-72
2024/01/22 11:34:11;;;;;;;8.87;8.23;;;;;;;;;;5014580;28;20255;-67
2024/01/22 11:36:49;;;;;;;1.63;1.53;;;;;;;;;;5013619;28;20716;-67
2024/01/22 11:39:32;;;;;;;1.63;1.53;;;;;;;;;;5013453;28;20242;-67
2024/01/22 11:41:58;;;;;;;0.60;0.60;;;;;;;;;;5013407;28;20187;-68
2024/01/22 11:44:26;;;;;;;0.50;0.50;;;;;;;;;;5013312;28;20673;-67
2024/01/22 11:47:11;;;;;;;0.50;0.50;;;;;;;;;;5013240;28;20176;-67
2024/01/22 11:49:37;;;;;;;0.50;0.50;;;;;;;;;;5012961;28;20193;-68
2024/01/22 11:52:14;;;;;;;0.70;0.70;;;;;;;;;;5013185;28;20172;-67
2024/01/22 11:54:51;;;;;;;0.50;0.50;;;;;;;;;;5013210;28;20650;-66
2024/01/22 11:57:17;;;;;;;0.73;0.73;;;;;;;;;;5013127;28;20168;-66
2024/01/22 11:59:42;;;;;;;0.50;0.50;;;;;;;;;;5013095;28;20656;-67
2024/01/22 12:02:09;;;;;;;0.50;0.50;;;;;;;;;;5013031;28;20230;-67
2024/01/22 12:04:34;;;;;;;0.90;0.90;;;;;;;;;;5012982;28;20232;-67
2024/01/22 12:07:00;;;;;;;0.50;0.50;;;;;;;;;;5013026;28;20250;-67
2024/01/22 12:09:25;;;;;;;0.50;0.50;;;;;;;;;;5012903;28;20160;-67
2024/01/22 12:11:51;;;;;;;0.50;0.50;;;;;;;;;;5012876;28;20642;-68
2024/01/22 12:14:17;;;;;;;0.80;0.80;;;;;;;;;;5012837;28;20175;-67
2024/01/22 12:16:42;;;;;;;6.03;5.67;;;;;;;;;;5012774;28;20172;-68
2024/01/22 12:19:11;;;;;;;0.90;0.90;;;;;;;;;;5012615;28;20182;-68
2024/01/22 12:21:39;;;;;;;1.33;1.33;;;;;;;;;;5012791;28;20621;-68
2024/01/22 12:24:14;;;;;;;1.33;1.23;;;;;;;;;;5012474;28;20653;-68
2024/01/22 12:26:40;;;;;;;1.97;1.87;;;;;;;;;;5012636;28;20190;-69
2024/01/22 12:29:06;;;;;;;0.70;0.70;;;;;;;;;;5012457;28;20634;-68
2024/01/22 12:31:31;;;;;;;0.80;0.80;;;;;;;;;;5012466;28;20602;-68
2024/01/22 12:34:10;;;;;;;0.70;0.70;;;;;;;;;;5012396;28;20164;-68
2024/01/22 12:36:36;;;;;;;0.73;0.73;;;;;;;;;;5012703;28;20637;-68
2024/01/22 12:39:03;;;;;;;7.10;3.60;;;;;;;;;;5012412;28;20251;-68
2024/01/22 12:41:30;;;;;;;3.10;1.83;;;;;;;;;;5012446;28;20179;-68
2024/01/22 12:43:59;;;;;;;0.60;0.60;;;;;;;;;;5012350;28;20268;-68
2024/01/22 12:46:25;;;;;;;0.83;0.83;;;;;;;;;;5012447;28;20231;-68
2024/01/22 12:48:53;;;;;;;1.43;1.37;;;;;;;;;;5012762;28;20289;-68
2024/01/22 12:51:24;;;;;;;1.80;1.70;;;;;;;;;;5012184;28;20584;-68
2024/01/22 12:53:49;;;;;;;1.60;1.50;;;;;;;;;;5012169;28;20171;-69
2024/01/22 12:56:15;;;;;;;0.60;0.60;;;;;;;;;;5011968;28;20172;-69
2024/01/22 12:58:41;;;;;;;3.80;3.50;;;;;;;;;;5012015;28;20223;-68
2024/01/22 13:01:06;;;;;;;0.50;0.50;;;;;;;;;;5012113;28;20172;-69
2024/01/22 13:03:32;;;;;;;0.60;0.60;;;;;;;;;;5012229;28;20624;-69
2024/01/22 13:05:57;;;;;;;7.07;4.80;;;;;;;;;;5011775;28;20678;-66
2024/01/22 13:08:23;;;;;;;4.23;3.90;;;;;;;;;;5011889;28;20219;-67
2024/01/22 13:10:48;;;;;;;3.30;3.10;;;;;;;;;;5011756;28;20164;-69
2024/01/22 13:13:14;;;;;;;0.60;0.60;;;;;;;;;;5011705;28;20656;-67
2024/01/22 13:15:40;;;;;;;0.70;0.70;;;;;;;;;;5011665;28;20227;-68
2024/01/22 13:18:06;;;;;;;1.40;1.40;;;;;;;;;;5011634;28;20243;-67
2024/01/22 13:20:31;;;;;;;0.73;0.73;;;;;;;;;;5011593;28;20252;-67
2024/01/22 13:22:57;;;;;;;0.50;0.50;;;;;;;;;;5011383;28;20176;-66
2024/01/22 13:25:22;;;;;;;0.50;0.50;;;;;;;;;;5011541;28;20311;-68
2024/01/22 13:27:49;;;;;;;0.50;0.50;;;;;;;;;;5011357;28;20231;-66
2024/01/22 13:30:14;;;;;;;7.07;6.43;;;;;;;;;;5011426;28;20164;-67
2024/01/22 13:32:40;;;;;;;0.50;0.50;;;;;;;;;;5011370;28;20619;-66
2024/01/22 13:35:05;;;;;;;4.17;1.73;;;;;;;;;;5011357;28;20173;-67
2024/01/22 13:37:31;;;;;;;0.73;0.73;;;;;;;;;;5011460;28;20177;-66
2024/01/22 13:39:57;;;;;;;0.60;0.60;;;;;;;;;;5011614;28;20180;-66
2024/01/22 13:42:22;;;;;;;0.50;0.50;;;;;;;;;;5011144;28;20634;-67
2024/01/22 13:44:53;;;;;;;2.20;2.10;;;;;;;;;;5011362;28;20207;-66
2024/01/22 13:47:22;;;;;;;2.93;1.57;;;;;;;;;;5011446;28;20553;-66
2024/01/22 13:49:47;;;;;;;1.70;1.70;;;;;;;;;;4998507;28;20188;-68
2024/01/22 13:52:12;;;;;;;0.50;0.50;;;;;;;;;;4993087;28;20153;-66
2024/01/22 13:54:38;;;;;;;0.70;0.70;;;;;;;;;;4991505;28;20232;-67
2024/01/22 13:57:03;;;;;;;0.67;0.67;;;;;;;;;;4991482;28;20165;-68
2024/01/22 13:59:29;;;;;;;0.90;0.90;;;;;;;;;;4991430;28;20169;-68
2024/01/22 14:01:55;;;;;;;0.70;0.70;;;;;;;;;;4991503;28;20153;-68
2024/01/22 14:04:21;;;;;;;0.60;0.60;;;;;;;;;;4991399;28;20263;-68
2024/01/22 14:06:47;;;;;;;0.70;0.70;;;;;;;;;;4991322;28;20165;-68
2024/01/22 14:09:14;;;;;;;0.50;0.50;;;;;;;;;;4991129;28;20312;-68
2024/01/22 14:11:39;;;;;;;0.60;0.60;;;;;;;;;;4991096;28;20180;-67
2024/01/22 14:14:06;;;;;;;0.63;0.63;;;;;;;;;;4991281;28;20165;-68
2024/01/22 14:16:32;;;;;;;0.60;0.60;;;;;;;;;;4991169;28;20536;-68
2024/01/22 14:18:57;;;;;;;0.60;0.60;;;;;;;;;;4991293;28;20176;-69
2024/01/22 14:21:22;;;;;;;1.43;1.43;;;;;;;;;;4977661;28;20209;-69
2024/01/22 14:23:48;;;;;;;2.67;2.40;;;;;;;;;;4971719;28;20169;-69
2024/01/22 14:26:13;;;;;;;0.70;0.70;;;;;;;;;;4970315;28;20704;-68
2024/01/22 14:28:38;;;;;;;8.00;2.53;;;;;;;;;;4971592;28;20173;-69
2024/01/22 14:31:04;;;;;;;0.50;0.50;;;;;;;;;;4971638;28;20157;-67
2024/01/22 14:33:29;;;;;;;0.50;0.50;;;;;;;;;;4974295;28;20635;-69
2024/01/22 14:35:55;;;;;;;0.60;0.60;;;;;;;;;;4981300;28;20203;-69